createdAt,value
2019-06-20T00:00:31.353Z,100.00
2019-06-20T00:03:03.223Z,100.00
2019-06-20T00:05:35.131Z,100.00
2019-06-20T00:08:06.584Z,100.00
2019-06-20T00:10:37.950Z,100.00
2019-06-20T00:13:10.609Z,100.00
2019-06-20T00:15:42.708Z,100.00
2019-06-20T00:18:14.375Z,100.00
2019-06-20T00:20:45.860Z,100.00
2019-06-20T00:23:17.275Z,100.00
2019-06-20T00:25:48.675Z,100.00
2019-06-20T00:28:20.000Z,100.00
2019-06-20T00:30:51.595Z,100.00
2019-06-20T00:33:22.893Z,100.00
2019-06-20T00:35:54.481Z,99.85
2019-06-20T00:38:25.745Z,95.28
2019-06-20T00:40:57.134Z,96.46
2019-06-20T00:43:28.943Z,96.01
2019-06-20T00:46:00.329Z,96.68
2019-06-20T00:48:31.762Z,98.02
2019-06-20T00:51:03.510Z,100.00
2019-06-20T00:53:34.889Z,98.86
2019-06-20T00:56:07.188Z,100.00
2019-06-20T00:58:38.654Z,100.00
2019-06-20T01:01:10.284Z,100.00
2019-06-20T01:03:41.739Z,96.94
2019-06-20T01:06:13.829Z,98.88
2019-06-20T01:08:45.231Z,99.37
2019-06-20T01:11:16.655Z,98.02
2019-06-20T01:13:48.209Z,100.00
2019-06-20T01:16:19.702Z,100.00
2019-06-20T01:18:51.450Z,100.00
2019-06-20T01:21:23.249Z,100.00
2019-06-20T01:23:55.730Z,100.00
2019-06-20T01:26:27.076Z,100.00
2019-06-20T01:28:59.622Z,100.00
2019-06-20T01:31:31.521Z,100.00
2019-06-20T01:34:02.948Z,100.00
2019-06-20T01:36:34.421Z,100.00
2019-06-20T01:39:09.586Z,100.00
2019-06-20T01:41:41.622Z,100.00
2019-06-20T01:44:13.776Z,99.86
2019-06-20T01:46:45.299Z,100.00
2019-06-20T01:49:16.846Z,100.00
2019-06-20T01:51:48.238Z,100.00
2019-06-20T01:54:19.684Z,98.00
2019-06-20T01:56:51.222Z,97.11
2019-06-20T01:59:22.869Z,96.76
2019-06-20T02:01:54.643Z,97.73
2019-06-20T02:04:26.324Z,96.47
2019-06-20T02:06:57.890Z,96.78
2019-06-20T02:09:29.627Z,97.66
2019-06-20T02:12:01.113Z,95.54
2019-06-20T02:14:32.592Z,96.06
2019-06-20T02:17:04.122Z,95.63
2019-06-20T02:19:36.001Z,96.91
2019-06-20T02:22:07.460Z,97.67
2019-06-20T02:24:38.929Z,96.94
2019-06-20T02:27:10.277Z,96.17
2019-06-20T02:29:41.787Z,97.43
2019-06-20T02:32:13.106Z,96.98
2019-06-20T02:34:44.574Z,96.25
2019-06-20T02:37:16.528Z,97.90
2019-06-20T02:39:47.839Z,98.71
2019-06-20T02:42:19.337Z,98.15
2019-06-20T02:44:50.628Z,97.42
2019-06-20T02:47:22.345Z,100.00
2019-06-20T02:49:53.712Z,100.00
2019-06-20T02:52:25.787Z,100.00
2019-06-20T02:54:57.345Z,100.00
2019-06-20T02:57:29.127Z,100.00
2019-06-20T03:00:00.862Z,100.00
2019-06-20T03:02:32.336Z,100.00
2019-06-20T03:05:04.141Z,100.00
2019-06-20T03:07:35.613Z,100.00
2019-06-20T03:10:07.804Z,100.00
2019-06-20T03:12:39.620Z,100.00
2019-06-20T03:15:11.406Z,100.00
2019-06-20T03:17:42.867Z,100.00
2019-06-20T03:20:14.563Z,100.00
2019-06-20T03:22:46.410Z,100.00
2019-06-20T03:25:19.354Z,100.00
2019-06-20T03:27:50.867Z,100.00
2019-06-20T03:30:22.608Z,100.00
2019-06-20T03:32:54.598Z,100.00
2019-06-20T03:35:26.070Z,100.00
2019-06-20T03:37:57.931Z,100.00
2019-06-20T03:40:29.400Z,100.00
2019-06-20T03:43:00.862Z,100.00
2019-06-20T03:45:32.385Z,100.00
2019-06-20T03:48:04.073Z,100.00
2019-06-20T03:50:35.616Z,100.00
2019-06-20T03:53:07.400Z,100.00
2019-06-20T03:55:38.914Z,100.00
2019-06-20T03:58:10.310Z,100.00
2019-06-20T04:00:42.394Z,100.00
2019-06-20T04:03:13.892Z,100.00
2019-06-20T04:05:45.498Z,100.00
2019-06-20T04:08:17.046Z,100.00
2019-06-20T04:10:48.498Z,100.00
2019-06-20T04:13:19.948Z,100.00
2019-06-20T04:15:51.337Z,100.00
2019-06-20T04:18:22.662Z,100.00
2019-06-20T04:20:54.334Z,100.00
2019-06-20T04:23:25.707Z,100.00
2019-06-20T04:25:57.287Z,100.00
2019-06-20T04:28:29.011Z,100.00
2019-06-20T04:31:00.415Z,100.00
2019-06-20T04:33:31.923Z,100.00
2019-06-20T04:36:03.647Z,100.00
2019-06-20T04:38:35.115Z,100.00
2019-06-20T04:41:06.562Z,100.00
2019-06-20T04:43:38.033Z,100.00
2019-06-20T04:46:20.166Z,100.00
2019-06-20T04:48:51.462Z,100.00
2019-06-20T04:51:22.729Z,100.00
2019-06-20T04:53:54.203Z,100.00
2019-06-20T04:56:25.953Z,100.00
2019-06-20T04:58:57.362Z,100.00
2019-06-20T05:01:28.685Z,100.00
2019-06-20T05:03:59.956Z,100.00
2019-06-20T05:06:31.719Z,100.00
2019-06-20T05:09:03.368Z,100.00
2019-06-20T05:11:34.767Z,100.00
2019-06-20T05:14:06.271Z,100.00
2019-06-20T05:16:37.722Z,100.00
2019-06-20T05:19:09.104Z,100.00
2019-06-20T05:21:40.847Z,100.00
2019-06-20T05:24:12.233Z,100.00
2019-06-20T05:26:43.490Z,100.00
2019-06-20T05:29:15.374Z,99.97
2019-06-20T05:31:46.804Z,99.66
2019-06-20T05:34:18.527Z,99.41
2019-06-20T05:36:50.335Z,99.97
2019-06-20T05:39:22.215Z,99.25
2019-06-20T05:41:53.604Z,99.09
2019-06-20T05:44:25.376Z,99.81
2019-06-20T05:47:11.424Z,99.69
2019-06-20T05:49:30.196Z,99.60
2019-06-20T05:52:01.711Z,98.76
2019-06-20T05:54:33.043Z,99.44
2019-06-20T05:57:04.756Z,96.41
2019-06-20T05:59:36.293Z,98.49
2019-06-20T06:02:08.214Z,98.00
2019-06-20T06:04:39.658Z,96.47
2019-06-20T06:07:14.122Z,97.29
2019-06-20T06:09:45.582Z,98.65
2019-06-20T06:12:17.250Z,99.15
2019-06-20T06:14:49.132Z,100.00
2019-06-20T06:17:21.112Z,100.00
2019-06-20T06:19:52.657Z,100.00
2019-06-20T06:22:25.616Z,100.00
2019-06-20T06:24:57.273Z,100.00
2019-06-20T06:27:47.149Z,100.00
2019-06-20T06:30:19.942Z,100.00
2019-06-20T06:32:56.540Z,100.00
2019-06-20T06:35:28.847Z,100.00
2019-06-20T06:38:02.984Z,100.00
2019-06-20T06:40:34.516Z,98.92
2019-06-20T06:43:05.957Z,100.00
2019-06-20T06:45:37.498Z,97.57
2019-06-20T06:48:09.203Z,93.44
2019-06-20T06:50:40.953Z,92.79
2019-06-20T06:53:12.323Z,91.91
2019-06-20T06:55:43.714Z,91.77
2019-06-20T06:58:15.249Z,94.36
2019-06-20T07:00:47.274Z,91.37
2019-06-20T07:03:18.635Z,94.16
2019-06-20T07:05:50.089Z,92.84
2019-06-20T07:08:21.440Z,90.61
2019-06-20T07:10:53.803Z,95.80
2019-06-20T07:13:25.281Z,96.86
2019-06-20T07:15:56.679Z,97.15
2019-06-20T07:18:28.034Z,97.05
2019-06-20T07:20:59.562Z,96.08
2019-06-20T07:23:30.917Z,95.70
2019-06-20T07:26:02.325Z,96.43
2019-06-20T07:28:34.030Z,96.31
2019-06-20T07:31:04.804Z,94.59
2019-06-20T07:33:36.181Z,89.13
2019-06-20T07:36:08.113Z,88.91
2019-06-20T07:38:39.459Z,87.08
2019-06-20T07:41:11.191Z,86.33
2019-06-20T07:43:42.835Z,83.87
2019-06-20T07:46:14.293Z,85.68
2019-06-20T07:48:45.926Z,84.62
2019-06-20T07:51:17.944Z,87.08
2019-06-20T07:53:49.310Z,84.63
2019-06-20T07:56:20.714Z,83.60
2019-06-20T07:58:52.306Z,84.32
2019-06-20T08:01:24.223Z,85.07
2019-06-20T08:03:55.579Z,91.31
2019-06-20T08:06:27.120Z,99.96
2019-06-20T08:08:59.015Z,100.00
2019-06-20T08:11:30.506Z,100.00
2019-06-20T08:14:01.908Z,100.00
2019-06-20T08:16:33.437Z,100.00
2019-06-20T08:19:04.901Z,100.00
2019-06-20T08:21:36.355Z,100.00
2019-06-20T08:24:07.802Z,100.00
2019-06-20T08:26:39.523Z,100.00
2019-06-20T08:29:20.829Z,100.00
2019-06-20T08:31:44.009Z,100.00
2019-06-20T08:34:15.376Z,100.00
2019-06-20T08:36:46.816Z,100.00
2019-06-20T08:39:18.203Z,100.00
2019-06-20T08:41:49.581Z,100.00
2019-06-20T08:44:21.659Z,100.00
2019-06-20T08:46:53.027Z,100.00
2019-06-20T08:49:25.472Z,100.00
2019-06-20T08:51:57.376Z,100.00
2019-06-20T08:54:28.721Z,100.00
2019-06-20T08:57:00.811Z,99.05
2019-06-20T08:59:32.356Z,100.00
2019-06-20T09:04:36.236Z,100.00
2019-06-20T09:07:07.792Z,100.00
2019-06-20T09:09:39.267Z,97.13
2019-06-20T09:12:10.587Z,95.51
2019-06-20T09:14:42.308Z,97.53
2019-06-20T09:17:13.923Z,96.70
2019-06-20T09:19:45.692Z,90.11
2019-06-20T09:22:17.448Z,88.79
2019-06-20T09:24:49.175Z,85.74
2019-06-20T09:27:21.065Z,82.74
2019-06-20T09:29:53.266Z,84.35
2019-06-20T09:32:25.645Z,88.48
2019-06-20T09:34:57.035Z,76.90
2019-06-20T09:37:28.449Z,74.99
2019-06-20T09:39:59.822Z,75.39
2019-06-20T09:42:31.381Z,77.88
2019-06-20T09:45:02.970Z,73.37
2019-06-20T09:47:34.465Z,76.75
2019-06-20T09:50:08.405Z,79.16
2019-06-20T09:52:40.125Z,80.39
2019-06-20T09:55:13.461Z,83.80
2019-06-20T09:57:45.169Z,83.39
2019-06-20T10:00:17.976Z,84.56
2019-06-20T10:02:50.673Z,87.27
2019-06-20T10:05:23.234Z,88.95
2019-06-20T10:07:54.737Z,84.23
2019-06-20T10:10:30.914Z,83.97
2019-06-20T10:13:02.366Z,80.09
2019-06-20T10:15:36.941Z,81.76
2019-06-20T10:18:08.558Z,75.09
2019-06-20T10:20:40.014Z,73.31
2019-06-20T10:23:11.474Z,71.75
2019-06-20T10:25:42.934Z,69.92
2019-06-20T10:28:14.382Z,65.94
2019-06-20T10:30:46.501Z,68.15
2019-06-20T10:33:18.084Z,65.89
2019-06-20T10:35:50.366Z,64.96
2019-06-20T10:38:21.945Z,73.32
2019-06-20T10:40:53.465Z,68.08
2019-06-20T10:43:25.097Z,66.66
2019-06-20T10:45:56.769Z,68.01
2019-06-20T10:48:28.092Z,65.85
2019-06-20T10:51:18.439Z,62.97
2019-06-20T10:53:51.423Z,61.65
2019-06-20T10:56:22.825Z,62.93
2019-06-20T10:58:54.160Z,68.02
2019-06-20T11:01:25.760Z,63.37
2019-06-20T11:03:57.066Z,61.12
2019-06-20T11:06:28.454Z,59.19
2019-06-20T11:08:59.762Z,60.29
2019-06-20T11:11:31.121Z,61.60
2019-06-20T11:14:02.667Z,65.74
2019-06-20T11:16:34.512Z,67.30
2019-06-20T11:19:05.973Z,69.99
2019-06-20T11:21:39.503Z,70.25
2019-06-20T11:24:11.457Z,64.49
2019-06-20T11:26:43.080Z,57.58
2019-06-20T11:29:15.005Z,55.34
2019-06-20T11:31:47.916Z,60.10
2019-06-20T11:34:19.585Z,57.66
2019-06-20T11:36:51.280Z,61.21
2019-06-20T11:39:23.248Z,58.85
2019-06-20T11:41:54.704Z,56.59
2019-06-20T11:44:26.154Z,51.77
2019-06-20T11:46:57.462Z,48.96
2019-06-20T11:49:28.933Z,50.61
2019-06-20T11:52:00.352Z,44.79
2019-06-20T11:54:32.834Z,44.63
2019-06-20T11:57:04.887Z,46.44
2019-06-20T11:59:36.266Z,47.52
2019-06-20T12:02:08.960Z,49.07
2019-06-20T12:04:41.484Z,48.65
2019-06-20T12:07:13.304Z,48.98
2019-06-20T12:09:44.700Z,50.23
2019-06-20T12:12:16.181Z,54.84
2019-06-20T12:14:48.606Z,55.80
2019-06-20T12:17:20.109Z,50.27
2019-06-20T12:19:51.491Z,49.64
2019-06-20T12:22:22.880Z,50.92
2019-06-20T12:24:54.659Z,50.95
2019-06-20T12:27:26.271Z,47.96
2019-06-20T12:29:57.842Z,50.68
2019-06-20T12:32:29.328Z,46.68
2019-06-20T12:35:00.743Z,46.93
2019-06-20T12:37:32.101Z,47.42
2019-06-20T12:40:03.554Z,46.84
2019-06-20T12:42:34.931Z,43.63
2019-06-20T12:45:07.887Z,46.75
2019-06-20T12:47:40.209Z,44.65
2019-06-20T12:50:12.336Z,44.98
2019-06-20T12:52:45.364Z,46.98
2019-06-20T12:55:16.872Z,47.72
2019-06-20T12:57:48.645Z,46.04
2019-06-20T13:00:21.891Z,49.55
2019-06-20T13:02:53.296Z,48.49
2019-06-20T13:05:25.555Z,50.42
2019-06-20T13:07:57.003Z,50.57
2019-06-20T13:10:28.473Z,52.33
2019-06-20T13:12:59.988Z,51.49
2019-06-20T13:15:31.311Z,53.35
2019-06-20T13:18:02.897Z,52.66
2019-06-20T13:20:34.271Z,51.37
2019-06-20T13:23:05.633Z,49.73
2019-06-20T13:25:37.712Z,51.08
2019-06-20T13:28:10.104Z,51.48
2019-06-20T13:30:45.987Z,52.36
2019-06-20T13:33:15.566Z,50.72
2019-06-20T13:35:48.631Z,53.11
2019-06-20T13:38:21.142Z,51.40
2019-06-20T13:40:52.569Z,53.40
2019-06-20T13:43:24.416Z,52.56
2019-06-20T13:45:55.895Z,53.13
2019-06-20T13:48:27.259Z,50.38
2019-06-20T13:50:58.870Z,51.04
2019-06-20T13:53:30.449Z,48.11
2019-06-20T13:56:02.490Z,47.36
2019-06-20T13:58:33.778Z,46.86
2019-06-20T14:01:05.352Z,48.37
2019-06-20T14:03:36.727Z,46.34
2019-06-20T14:06:08.128Z,48.49
2019-06-20T14:08:42.353Z,49.60
2019-06-20T14:11:12.820Z,50.63
2019-06-20T14:13:49.386Z,49.47
2019-06-20T14:16:17.385Z,49.65
2019-06-20T14:18:50.242Z,51.89
2019-06-20T14:21:21.793Z,52.71
2019-06-20T14:23:53.855Z,52.72
2019-06-20T14:26:25.517Z,51.58
2019-06-20T14:28:57.008Z,54.20
2019-06-20T14:31:28.685Z,51.71
2019-06-20T14:34:00.082Z,53.42
2019-06-20T14:36:31.606Z,55.70
2019-06-20T14:39:03.021Z,56.42
2019-06-20T14:41:36.365Z,59.52
2019-06-20T14:44:07.801Z,58.41
2019-06-20T14:46:39.525Z,59.24
2019-06-20T14:49:11.084Z,57.59
2019-06-20T14:51:43.561Z,58.68
2019-06-20T14:54:15.695Z,58.94
2019-06-20T14:56:47.945Z,58.67
2019-06-20T14:59:19.465Z,58.98
2019-06-20T15:01:52.562Z,60.23
2019-06-20T15:04:25.280Z,61.93
2019-06-20T15:06:56.811Z,63.55
2019-06-20T15:09:28.185Z,65.59
2019-06-20T15:11:59.593Z,66.83
2019-06-20T15:14:30.827Z,65.16
2019-06-20T15:17:02.222Z,66.02
2019-06-20T15:19:33.573Z,66.78
2019-06-20T15:22:04.984Z,67.37
2019-06-20T15:24:36.687Z,67.51
2019-06-20T15:27:08.169Z,68.05
2019-06-20T15:29:39.376Z,68.51
2019-06-20T15:32:10.721Z,67.02
2019-06-20T15:34:42.033Z,66.95
2019-06-20T15:37:13.797Z,65.26
2019-06-20T15:39:45.174Z,66.15
2019-06-20T15:42:16.603Z,66.40
2019-06-20T15:44:48.982Z,66.29
2019-06-20T15:47:21.484Z,67.23
2019-06-20T15:49:52.982Z,65.09
2019-06-20T15:52:24.388Z,63.35
2019-06-20T15:54:55.726Z,62.16
2019-06-20T15:57:28.011Z,61.85
2019-06-20T15:59:59.311Z,63.48
2019-06-20T16:02:30.812Z,64.78
2019-06-20T16:05:02.336Z,65.65
2019-06-20T16:07:33.773Z,67.14
2019-06-20T16:10:05.484Z,67.95
2019-06-20T16:12:36.938Z,68.99
2019-06-20T16:15:08.977Z,67.14
2019-06-20T16:17:40.479Z,67.27
2019-06-20T16:20:12.324Z,66.81
2019-06-20T16:22:43.836Z,68.17
2019-06-20T16:25:16.198Z,70.99
2019-06-20T16:27:47.491Z,70.66
2019-06-20T16:30:21.101Z,67.99
2019-06-20T16:32:52.457Z,68.43
2019-06-20T16:35:23.893Z,70.87
2019-06-20T16:37:55.371Z,71.45
2019-06-20T16:40:47.794Z,71.08
2019-06-20T16:43:19.795Z,71.50
2019-06-20T16:45:51.527Z,73.72
2019-06-20T16:48:22.827Z,72.97
2019-06-20T16:50:54.234Z,72.67
2019-06-20T16:53:25.781Z,72.01
2019-06-20T16:55:57.290Z,72.49
2019-06-20T16:58:28.659Z,68.38
2019-06-20T17:01:00.119Z,69.69
2019-06-20T17:03:41.167Z,69.67
2019-06-20T17:06:04.556Z,71.06
2019-06-20T17:08:35.940Z,69.51
2019-06-20T17:11:07.433Z,67.90
2019-06-20T17:13:38.810Z,69.97
2019-06-20T17:16:10.364Z,68.16
2019-06-20T17:18:41.918Z,68.93
2019-06-20T17:21:13.479Z,67.48
2019-06-20T17:23:45.926Z,68.76
2019-06-20T17:26:17.448Z,68.10
2019-06-20T17:28:48.831Z,68.14
2019-06-20T17:31:20.764Z,65.96
2019-06-20T17:33:57.559Z,68.26
2019-06-20T17:36:25.441Z,69.01
2019-06-20T17:38:56.954Z,63.80
2019-06-20T17:41:28.240Z,67.67
2019-06-20T17:43:59.464Z,69.50
2019-06-20T17:46:30.839Z,69.83
2019-06-20T17:49:02.189Z,70.54
2019-06-20T17:51:33.638Z,72.09
2019-06-20T17:54:05.013Z,70.92
2019-06-20T17:56:36.408Z,72.45
2019-06-20T17:59:07.860Z,73.01
2019-06-20T18:01:39.316Z,74.26
2019-06-20T18:04:14.095Z,73.46
2019-06-20T18:06:44.284Z,73.57
2019-06-20T18:09:15.749Z,72.91
2019-06-20T18:11:47.113Z,73.13
2019-06-20T18:14:18.511Z,73.10
2019-06-20T18:16:50.094Z,74.26
2019-06-20T18:19:21.402Z,72.78
2019-06-20T18:21:52.902Z,73.40
2019-06-20T18:24:24.225Z,76.38
2019-06-20T18:26:55.687Z,75.58
2019-06-20T18:29:27.980Z,76.98
2019-06-20T18:31:59.213Z,76.11
2019-06-20T18:34:30.842Z,77.33
2019-06-20T18:37:02.281Z,78.30
2019-06-20T18:39:33.675Z,80.33
2019-06-20T18:42:05.147Z,81.83
2019-06-20T18:44:36.642Z,81.38
2019-06-20T18:47:08.086Z,81.11
2019-06-20T18:49:39.562Z,80.68
2019-06-20T18:52:10.925Z,80.54
2019-06-20T18:54:42.234Z,81.15
2019-06-20T18:57:13.598Z,82.02
2019-06-20T18:59:45.232Z,85.10
2019-06-20T19:02:17.616Z,85.62
2019-06-20T19:04:50.902Z,88.55
2019-06-20T19:07:22.822Z,90.47
2019-06-20T19:09:54.534Z,91.35
2019-06-20T19:12:25.810Z,92.71
2019-06-20T19:14:57.145Z,94.05
2019-06-20T19:17:28.475Z,95.38
2019-06-20T19:20:00.498Z,96.51
2019-06-20T19:22:32.838Z,97.19
2019-06-20T19:25:04.753Z,97.32
2019-06-20T19:27:45.466Z,97.95
2019-06-20T19:30:09.855Z,98.21
2019-06-20T19:32:41.327Z,98.90
2019-06-20T19:35:13.562Z,99.89
2019-06-20T19:37:44.909Z,100.00
2019-06-20T19:40:16.478Z,100.00
2019-06-20T19:42:47.760Z,100.00
2019-06-20T19:45:19.505Z,100.00
2019-06-20T19:47:50.993Z,100.00
2019-06-20T19:50:23.037Z,100.00
2019-06-20T19:52:54.825Z,100.00
2019-06-20T19:55:26.350Z,100.00
2019-06-20T19:57:57.764Z,100.00
2019-06-20T20:00:29.140Z,100.00
2019-06-20T20:03:00.575Z,100.00
2019-06-20T20:05:32.202Z,100.00
2019-06-20T20:08:03.966Z,100.00
2019-06-20T20:10:47.197Z,100.00
2019-06-20T20:13:18.782Z,100.00
2019-06-20T20:15:50.228Z,100.00
2019-06-20T20:18:22.231Z,100.00
2019-06-20T20:20:53.674Z,100.00
2019-06-20T20:23:25.036Z,100.00
2019-06-20T20:25:56.340Z,100.00
2019-06-20T20:28:27.559Z,100.00
2019-06-20T20:30:58.885Z,100.00
2019-06-20T20:33:30.420Z,100.00
2019-06-20T20:36:02.122Z,100.00
2019-06-20T20:38:33.515Z,100.00
2019-06-20T20:41:04.803Z,100.00
2019-06-20T20:43:36.086Z,100.00
2019-06-20T20:46:07.533Z,100.00
2019-06-20T20:48:38.909Z,100.00
2019-06-20T20:51:10.477Z,100.00
2019-06-20T20:53:41.774Z,100.00
2019-06-20T20:56:13.485Z,100.00
2019-06-20T20:58:44.872Z,100.00
2019-06-20T21:01:29.576Z,100.00
2019-06-20T21:04:01.510Z,100.00
2019-06-20T21:06:32.974Z,100.00
2019-06-20T21:09:05.575Z,100.00
2019-06-20T21:11:38.156Z,100.00
2019-06-20T21:14:09.841Z,100.00
2019-06-20T21:16:41.180Z,100.00
2019-06-20T21:19:12.823Z,100.00
2019-06-20T21:21:44.147Z,100.00
2019-06-20T21:24:15.494Z,100.00
2019-06-20T21:26:49.824Z,100.00
2019-06-20T21:29:20.345Z,100.00
2019-06-20T21:31:52.067Z,100.00
2019-06-20T21:34:23.447Z,100.00
2019-06-20T21:36:54.780Z,100.00
2019-06-20T21:39:26.083Z,100.00
2019-06-20T21:41:57.600Z,100.00
2019-06-20T21:44:29.003Z,100.00
2019-06-20T21:47:00.483Z,100.00
2019-06-20T21:49:31.872Z,100.00
2019-06-20T21:52:03.433Z,100.00
2019-06-20T21:54:35.241Z,100.00
2019-06-20T21:57:07.045Z,100.00
2019-06-20T21:59:38.566Z,100.00
2019-06-20T22:02:10.275Z,100.00
2019-06-20T22:04:53.992Z,100.00
2019-06-20T22:07:15.278Z,100.00
2019-06-20T22:09:46.801Z,100.00
2019-06-20T22:12:18.297Z,100.00
2019-06-20T22:14:49.864Z,100.00
2019-06-20T22:17:21.182Z,100.00
2019-06-20T22:19:52.822Z,100.00
2019-06-20T22:22:24.173Z,100.00
2019-06-20T22:24:55.884Z,100.00
2019-06-20T22:27:27.590Z,100.00
2019-06-20T22:29:58.977Z,100.00
2019-06-20T22:32:30.371Z,100.00
2019-06-20T22:35:01.772Z,100.00
2019-06-20T22:37:33.276Z,100.00
2019-06-20T22:40:06.459Z,100.00
2019-06-20T22:42:37.945Z,100.00
2019-06-20T22:45:11.634Z,100.00
2019-06-20T22:47:43.069Z,100.00
2019-06-20T22:50:14.891Z,100.00
2019-06-20T22:52:46.134Z,100.00
2019-06-20T22:55:17.766Z,100.00
2019-06-20T22:57:49.094Z,100.00
2019-06-20T23:00:21.896Z,100.00
2019-06-20T23:02:53.218Z,100.00
2019-06-20T23:05:24.593Z,100.00
2019-06-20T23:07:56.079Z,100.00
2019-06-20T23:10:27.968Z,100.00
2019-06-20T23:13:00.157Z,100.00
2019-06-20T23:15:31.868Z,100.00
2019-06-20T23:18:03.216Z,100.00
2019-06-20T23:20:34.744Z,100.00
2019-06-20T23:23:07.091Z,100.00
2019-06-20T23:25:40.322Z,100.00
2019-06-20T23:28:11.805Z,100.00
2019-06-20T23:30:44.112Z,100.00
2019-06-20T23:33:15.504Z,100.00
2019-06-20T23:35:47.214Z,100.00
2019-06-20T23:38:18.555Z,100.00
2019-06-20T23:40:50.020Z,100.00
2019-06-20T23:43:21.750Z,100.00
2019-06-20T23:45:54.210Z,100.00
2019-06-20T23:48:25.486Z,100.00
2019-06-20T23:50:57.511Z,100.00
2019-06-20T23:53:28.975Z,100.00
2019-06-20T23:56:00.695Z,100.00
2019-06-20T23:58:32.114Z,100.00
